Airfield :
LOGIN :

Register | Disclaimer

   EN    FR    IT 

 










Legend :    VFR   Marginal VFR   IFR   Intensive IFR   Very Intensive IFR
Visi :
Ceiling :
>= 8 km
>= 3000ft
5 to 8 km
1000 to 3000 ft
1500m to 5 km
500 to 1000 ft
800 to 1500m
200 to 500 ft
< 800m
< 200 ft
Symbols :   Thunderstorms  Fog  Heavy snow  Heavy precipitations  Wind > 20 kt
SIGMETs :     Misc.  Thunderstorms  Icing  Turbulence  Mountain Waves  Volcanic Ashes







- Airport Elevation : 291 ft
- IATA code : ORY
- Download approach charts


LFPO - Paris-Orly

CURRENT METAR :
  • 160030Z 03002KT CAVOK 16/12 Q1022 NOSIG

EXPIRED METARs :
  • 160000Z 02004KT CAVOK 17/12 Q1022 NOSIG
  • 152330Z VRB02KT CAVOK 18/12 Q1023 NOSIG
  • 152300Z 02005KT CAVOK 18/12 Q1023 NOSIG
  • 152230Z 01005KT CAVOK 19/12 Q1023 NOSIG
  • 152200Z 36006KT CAVOK 19/11 Q1023 NOSIG
  • 152130Z 36005KT 340V090 CAVOK 18/10 Q1023 NOSIG

TAF TAF LFPO
Valid from the 16 at 00:00 until the 17 at 06:00 UTC


152300Z 1600/1706 01003KT CAVOK
PROB30
TEMPO 1623/1706 BKN012
ATIS : +33 1 49 75 65 80
No reported NOTAMs for that airfield.



MET'MAP, your aeronautical weather chart ! - Copyright ORBIFLY December 2007 - Disclaimer

ORBIFLY MET'MAP TEAM :

Programming & Development : Alexandra Zaïnal
Concept & Development : Baudouin d'Aumeries
Co-Development & Prog : Marc-Olivier Méhu
Technical & hardware support : Manuel Goepfert

Contact : metmap@orbifly.com




SOURCES & CREDITS :

   NOAA